sensor_id;sensor_type;location;lat;lon;timestamp;pressure;altitude;pressure_sealevel;temperature;humidity
71805;BME280;59654;52.216;5.616;2023-04-08T00:00:05;102076.84;;;3.57;94.92
71805;BME280;59654;52.216;5.616;2023-04-08T00:00:40;102076.84;;;3.59;95.00
71805;BME280;59654;52.216;5.616;2023-04-08T00:01:11;102079.50;;;3.59;95.13
71805;BME280;59654;52.216;5.616;2023-04-08T00:01:42;102076.88;;;3.60;95.12
71805;BME280;59654;52.216;5.616;2023-04-08T00:02:13;102081.31;;;3.63;94.58
71805;BME280;59654;52.216;5.616;2023-04-08T00:02:44;102081.28;;;3.61;94.84
71805;BME280;59654;52.216;5.616;2023-04-08T00:03:15;102079.53;;;3.62;94.09
71805;BME280;59654;52.216;5.616;2023-04-08T00:03:46;102081.31;;;3.63;94.71
71805;BME280;59654;52.216;5.616;2023-04-08T00:04:17;102076.91;;;3.63;94.05
71805;BME280;59654;52.216;5.616;2023-04-08T00:04:48;102067.25;;;3.64;94.54
71805;BME280;59654;52.216;5.616;2023-04-08T00:05:19;102078.69;;;3.64;94.43
71805;BME280;59654;52.216;5.616;2023-04-08T00:05:50;102081.31;;;3.66;94.47
71805;BME280;59654;52.216;5.616;2023-04-08T00:06:21;102080.44;;;3.67;93.68
71805;BME280;59654;52.216;5.616;2023-04-08T00:06:51;102082.22;;;3.68;93.95
71805;BME280;59654;52.216;5.616;2023-04-08T00:07:22;102083.97;;;3.67;94.09
71805;BME280;59654;52.216;5.616;2023-04-08T00:07:53;102085.72;;;3.68;93.97
71805;BME280;59654;52.216;5.616;2023-04-08T00:08:24;102086.63;;;3.69;94.22
71805;BME280;59654;52.216;5.616;2023-04-08T00:08:55;102078.72;;;3.69;94.64
71805;BME280;59654;52.216;5.616;2023-04-08T00:09:25;102083.97;;;3.69;94.19
71805;BME280;59654;52.216;5.616;2023-04-08T00:09:56;102084.88;;;3.70;94.75
71805;BME280;59654;52.216;5.616;2023-04-08T00:10:27;102076.94;;;3.70;94.48
71805;BME280;59654;52.216;5.616;2023-04-08T00:10:58;102088.38;;;3.70;94.65
71805;BME280;59654;52.216;5.616;2023-04-08T00:11:28;102085.75;;;3.70;94.37
71805;BME280;59654;52.216;5.616;2023-04-08T00:11:59;102086.63;;;3.69;94.94
71805;BME280;59654;52.216;5.616;2023-04-08T00:12:30;102083.97;;;3.69;94.60
71805;BME280;59654;52.216;5.616;2023-04-08T00:13:02;102079.56;;;3.68;94.97
71805;BME280;59654;52.216;5.616;2023-04-08T00:13:32;102085.75;;;3.70;94.78
71805;BME280;59654;52.216;5.616;2023-04-08T00:14:03;102081.38;;;3.71;95.11
71805;BME280;59654;52.216;5.616;2023-04-08T00:14:34;102081.38;;;3.72;95.02
71805;BME280;59654;52.216;5.616;2023-04-08T00:15:07;102079.63;;;3.73;95.04
71805;BME280;59654;52.216;5.616;2023-04-08T00:15:39;102084.03;;;3.74;94.78
71805;BME280;59654;52.216;5.616;2023-04-08T00:16:11;102083.16;;;3.75;95.20
71805;BME280;59654;52.216;5.616;2023-04-08T00:16:41;102083.19;;;3.76;95.04
71805;BME280;59654;52.216;5.616;2023-04-08T00:17:12;102078.78;;;3.77;94.92
71805;BME280;59654;52.216;5.616;2023-04-08T00:17:43;102084.97;;;3.77;94.54
71805;BME280;59654;52.216;5.616;2023-04-08T00:18:15;102083.19;;;3.76;94.50
71805;BME280;59654;52.216;5.616;2023-04-08T00:18:46;102083.16;;;3.75;94.94
71805;BME280;59654;52.216;5.616;2023-04-08T00:19:18;102088.47;;;3.78;94.73
71805;BME280;59654;52.216;5.616;2023-04-08T00:19:50;102080.56;;;3.78;94.93
71805;BME280;59654;52.216;5.616;2023-04-08T00:20:22;102087.63;;;3.79;95.29
71805;BME280;59654;52.216;5.616;2023-04-08T00:20:53;102084.09;;;3.80;95.25
71805;BME280;59654;52.216;5.616;2023-04-08T00:21:26;102081.50;;;3.81;94.89
71805;BME280;59654;52.216;5.616;2023-04-08T00:21:57;102084.13;;;3.81;94.90
71805;BME280;59654;52.216;5.616;2023-04-08T00:22:28;102085.00;;;3.80;95.20
71805;BME280;59654;52.216;5.616;2023-04-08T00:22:59;102083.25;;;3.81;95.46
71805;BME280;59654;52.216;5.616;2023-04-08T00:23:30;102085.00;;;3.83;95.49
71805;BME280;59654;52.216;5.616;2023-04-08T00:24:01;102085.88;;;3.82;95.09
71805;BME280;59654;52.216;5.616;2023-04-08T00:24:31;102090.31;;;3.86;95.68
71805;BME280;59654;52.216;5.616;2023-04-08T00:25:02;102088.53;;;3.85;95.55
71805;BME280;59654;52.216;5.616;2023-04-08T00:25:36;102089.41;;;3.86;95.41
71805;BME280;59654;52.216;5.616;2023-04-08T00:26:06;102097.34;;;3.86;95.20
71805;BME280;59654;52.216;5.616;2023-04-08T00:26:37;102095.59;;;3.86;95.18
71805;BME280;59654;52.216;5.616;2023-04-08T00:27:08;102099.09;;;3.87;95.20
71805;BME280;59654;52.216;5.616;2023-04-08T00:27:39;102096.44;;;3.85;95.10
71805;BME280;59654;52.216;5.616;2023-04-08T00:28:10;102091.16;;;3.84;95.10
71805;BME280;59654;52.216;5.616;2023-04-08T00:28:40;102096.41;;;3.78;94.81
71805;BME280;59654;52.216;5.616;2023-04-08T00:29:13;102099.00;;;3.76;94.70
71805;BME280;59654;52.216;5.616;2023-04-08T00:29:44;102096.34;;;3.75;94.76
71805;BME280;59654;52.216;5.616;2023-04-08T00:30:14;102088.44;;;3.75;94.67
71805;BME280;59654;52.216;5.616;2023-04-08T00:30:45;102092.84;;;3.76;94.88
71805;BME280;59654;52.216;5.616;2023-04-08T00:31:16;102094.59;;;3.75;95.39
71805;BME280;59654;52.216;5.616;2023-04-08T00:31:47;102087.56;;;3.76;95.40
71805;BME280;59654;52.216;5.616;2023-04-08T00:32:18;102091.13;;;3.78;95.43
71805;BME280;59654;52.216;5.616;2023-04-08T00:32:49;102092.88;;;3.77;95.66
71805;BME280;59654;52.216;5.616;2023-04-08T00:33:19;102089.38;;;3.78;95.51
71805;BME280;59654;52.216;5.616;2023-04-08T00:33:51;102092.03;;;3.80;95.52
71805;BME280;59654;52.216;5.616;2023-04-08T00:34:22;102091.13;;;3.82;95.94
71805;BME280;59654;52.216;5.616;2023-04-08T00:34:53;102089.38;;;3.83;95.54
71805;BME280;59654;52.216;5.616;2023-04-08T00:35:23;102088.50;;;3.84;95.67
71805;BME280;59654;52.216;5.616;2023-04-08T00:35:55;102094.69;;;3.86;95.55
71805;BME280;59654;52.216;5.616;2023-04-08T00:36:25;102086.78;;;3.86;95.67
71805;BME280;59654;52.216;5.616;2023-04-08T00:36:57;102091.22;;;3.88;95.85
71805;BME280;59654;52.216;5.616;2023-04-08T00:37:29;102090.34;;;3.89;95.59
71805;BME280;59654;52.216;5.616;2023-04-08T00:38:00;102084.19;;;3.90;95.56
71805;BME280;59654;52.216;5.616;2023-04-08T00:38:31;102088.63;;;3.93;95.60
71805;BME280;59654;52.216;5.616;2023-04-08T00:39:04;102084.22;;;3.93;95.32
71805;BME280;59654;52.216;5.616;2023-04-08T00:39:36;102089.53;;;3.96;95.75
71805;BME280;59654;52.216;5.616;2023-04-08T00:40:07;102083.41;;;3.97;95.86
71805;BME280;59654;52.216;5.616;2023-04-08T00:40:39;102082.50;;;3.98;95.57
71805;BME280;59654;52.216;5.616;2023-04-08T00:41:09;102085.13;;;3.98;95.51
71805;BME280;59654;52.216;5.616;2023-04-08T00:41:40;102084.25;;;3.99;95.61
71805;BME280;59654;52.216;5.616;2023-04-08T00:42:11;102089.56;;;4.01;96.08
71805;BME280;59654;52.216;5.616;2023-04-08T00:42:42;102088.69;;;4.02;95.64
71805;BME280;59654;52.216;5.616;2023-04-08T00:43:12;102082.53;;;4.03;95.33
71805;BME280;59654;52.216;5.616;2023-04-08T00:43:45;102089.56;;;4.02;95.46
71805;BME280;59654;52.216;5.616;2023-04-08T00:44:16;102085.19;;;4.03;95.57
71805;BME280;59654;52.216;5.616;2023-04-08T00:44:47;102086.94;;;4.04;95.31
71805;BME280;59654;52.216;5.616;2023-04-08T00:45:18;102085.19;;;4.03;95.38
71805;BME280;59654;52.216;5.616;2023-04-08T00:45:49;102087.81;;;4.03;95.26
71805;BME280;59654;52.216;5.616;2023-04-08T00:46:21;102089.56;;;4.01;95.20
71805;BME280;59654;52.216;5.616;2023-04-08T00:46:51;102089.56;;;3.98;95.27
71805;BME280;59654;52.216;5.616;2023-04-08T00:47:22;102088.66;;;3.97;95.47
71805;BME280;59654;52.216;5.616;2023-04-08T00:47:53;102086.03;;;3.97;95.73
71805;BME280;59654;52.216;5.616;2023-04-08T00:48:24;102088.66;;;3.97;95.66
71805;BME280;59654;52.216;5.616;2023-04-08T00:48:55;102098.31;;;3.98;95.86
71805;BME280;59654;52.216;5.616;2023-04-08T00:49:26;102089.56;;;3.98;95.70
71805;BME280;59654;52.216;5.616;2023-04-08T00:49:57;102089.53;;;3.99;95.96
71805;BME280;59654;52.216;5.616;2023-04-08T00:50:28;102087.78;;;4.00;96.20
71805;BME280;59654;52.216;5.616;2023-04-08T00:50:58;102093.06;;;4.01;95.97
71805;BME280;59654;52.216;5.616;2023-04-08T00:51:29;102094.84;;;4.02;95.43
71805;BME280;59654;52.216;5.616;2023-04-08T00:52:00;102094.88;;;4.04;95.24
71805;BME280;59654;52.216;5.616;2023-04-08T00:52:31;102095.75;;;4.05;95.30
71805;BME280;59654;52.216;5.616;2023-04-08T00:53:02;102089.59;;;4.06;95.44
71805;BME280;59654;52.216;5.616;2023-04-08T00:53:32;102096.66;;;4.08;95.46
71805;BME280;59654;52.216;5.616;2023-04-08T00:54:05;102094.03;;;4.08;95.46
71805;BME280;59654;52.216;5.616;2023-04-08T00:54:37;102093.16;;;4.09;95.36
71805;BME280;59654;52.216;5.616;2023-04-08T00:55:08;102091.41;;;4.10;95.43
71805;BME280;59654;52.216;5.616;2023-04-08T00:55:39;102098.44;;;4.09;95.34
71805;BME280;59654;52.216;5.616;2023-04-08T00:56:09;102102.88;;;4.12;95.46
71805;BME280;59654;52.216;5.616;2023-04-08T00:56:43;102097.59;;;4.12;95.16
71805;BME280;59654;52.216;5.616;2023-04-08T00:57:14;102092.31;;;4.12;94.90
71805;BME280;59654;52.216;5.616;2023-04-08T00:57:45;102102.88;;;4.12;95.07
71805;BME280;59654;52.216;5.616;2023-04-08T00:58:17;102104.63;;;4.13;95.01
71805;BME280;59654;52.216;5.616;2023-04-08T00:58:49;102096.72;;;4.13;95.13
71805;BME280;59654;52.216;5.616;2023-04-08T00:59:25;102108.13;;;4.15;95.66
71805;BME280;59654;52.216;5.616;2023-04-08T00:59:56;102104.63;;;4.16;95.19
71805;BME280;59654;52.216;5.616;2023-04-08T01:00:29;102100.25;;;4.16;95.68
71805;BME280;59654;52.216;5.616;2023-04-08T01:01:17;102103.75;;;4.17;95.54
71805;BME280;59654;52.216;5.616;2023-04-08T01:02:09;102101.13;;;4.17;95.48
71805;BME280;59654;52.216;5.616;2023-04-08T01:02:44;102094.09;;;4.17;95.01
71805;BME280;59654;52.216;5.616;2023-04-08T01:05:06;102094.13;;;4.20;95.32
71805;BME280;59654;52.216;5.616;2023-04-08T01:06:48;102095.00;;;4.19;95.34
71805;BME280;59654;52.216;5.616;2023-04-08T01:07:32;102106.44;;;4.20;95.22
71805;BME280;59654;52.216;5.616;2023-04-08T01:08:07;102095.00;;;4.19;94.89
71805;BME280;59654;52.216;5.616;2023-04-08T01:08:41;102092.34;;;4.19;95.39
71805;BME280;59654;52.216;5.616;2023-04-08T01:09:12;102105.56;;;4.19;95.70
71805;BME280;59654;52.216;5.616;2023-04-08T01:09:53;102095.00;;;4.19;95.22
71805;BME280;59654;52.216;5.616;2023-04-08T01:10:29;102107.31;;;4.19;95.69
71805;BME280;59654;52.216;5.616;2023-04-08T01:11:05;102101.13;;;4.17;95.32
71805;BME280;59654;52.216;5.616;2023-04-08T01:11:43;102109.94;;;4.17;95.29
71805;BME280;59654;52.216;5.616;2023-04-08T01:12:21;102102.91;;;4.18;95.29
71805;BME280;59654;52.216;5.616;2023-04-08T01:12:58;102104.66;;;4.17;95.66
71805;BME280;59654;52.216;5.616;2023-04-08T01:13:39;102107.28;;;4.16;95.13
71805;BME280;59654;52.216;5.616;2023-04-08T01:14:16;102108.13;;;4.15;95.14
71805;BME280;59654;52.216;5.616;2023-04-08T01:14:56;102110.75;;;4.09;95.30
71805;BME280;59654;52.216;5.616;2023-04-08T01:15:35;102110.72;;;4.06;94.68
71805;BME280;59654;52.216;5.616;2023-04-08T01:16:12;102104.50;;;4.00;94.75
71805;BME280;59654;52.216;5.616;2023-04-08T01:16:45;102105.34;;;3.93;94.96
71805;BME280;59654;52.216;5.616;2023-04-08T01:17:19;102107.94;;;3.90;95.17
71805;BME280;59654;52.216;5.616;2023-04-08T01:17:54;102108.81;;;3.89;95.28
71805;BME280;59654;52.216;5.616;2023-04-08T01:18:26;102115.81;;;3.86;95.40
71805;BME280;59654;52.216;5.616;2023-04-08T01:19:00;102102.56;;;3.80;95.15
71805;BME280;59654;52.216;5.616;2023-04-08T01:19:36;102103.38;;;3.73;95.27
71805;BME280;59654;52.216;5.616;2023-04-08T01:20:10;102110.31;;;3.66;95.79
71805;BME280;59654;52.216;5.616;2023-04-08T01:20:44;102107.69;;;3.63;95.98
71805;BME280;59654;52.216;5.616;2023-04-08T01:21:17;102111.16;;;3.60;95.92
71805;BME280;59654;52.216;5.616;2023-04-08T01:21:51;102107.59;;;3.57;95.88
71805;BME280;59654;52.216;5.616;2023-04-08T01:23:23;102103.16;;;3.54;96.47
71805;BME280;59654;52.216;5.616;2023-04-08T01:24:32;102110.19;;;3.54;96.61
71805;BME280;59654;52.216;5.616;2023-04-08T01:25:13;102107.50;;;3.51;95.83
71805;BME280;59654;52.216;5.616;2023-04-08T01:25:52;102111.91;;;3.49;95.86
71805;BME280;59654;52.216;5.616;2023-04-08T01:26:25;102103.09;;;3.47;96.36
71805;BME280;59654;52.216;5.616;2023-04-08T01:26:58;102106.59;;;3.44;96.21
71805;BME280;59654;52.216;5.616;2023-04-08T01:27:32;102099.50;;;3.40;96.59
71805;BME280;59654;52.216;5.616;2023-04-08T01:28:09;102107.38;;;3.39;96.61
71805;BME280;59654;52.216;5.616;2023-04-08T01:28:42;102101.22;;;3.37;96.63
71805;BME280;59654;52.216;5.616;2023-04-08T01:29:15;102110.88;;;3.38;96.50
71805;BME280;59654;52.216;5.616;2023-04-08T01:29:48;102105.63;;;3.38;96.85
71805;BME280;59654;52.216;5.616;2023-04-08T01:30:23;102105.56;;;3.35;96.12
71805;BME280;59654;52.216;5.616;2023-04-08T01:30:57;102108.25;;;3.38;96.17
71805;BME280;59654;52.216;5.616;2023-04-08T01:31:31;102109.13;;;3.37;96.89
71805;BME280;59654;52.216;5.616;2023-04-08T01:32:04;102109.13;;;3.37;96.87
71805;BME280;59654;52.216;5.616;2023-04-08T01:32:38;102107.38;;;3.39;96.61
71805;BME280;59654;52.216;5.616;2023-04-08T01:33:13;102100.38;;;3.41;96.95
71805;BME280;59654;52.216;5.616;2023-04-08T01:33:47;102107.47;;;3.45;96.80
71805;BME280;59654;52.216;5.616;2023-04-08T01:34:21;102115.41;;;3.48;96.44
71805;BME280;59654;52.216;5.616;2023-04-08T01:34:53;102111.91;;;3.50;96.38
71805;BME280;59654;52.216;5.616;2023-04-08T01:35:25;102108.41;;;3.53;96.43
71805;BME280;59654;52.216;5.616;2023-04-08T01:35:57;102119.88;;;3.55;96.53
71805;BME280;59654;52.216;5.616;2023-04-08T01:36:29;102106.72;;;3.56;96.62
71805;BME280;59654;52.216;5.616;2023-04-08T01:37:03;102109.38;;;3.58;96.40
71805;BME280;59654;52.216;5.616;2023-04-08T01:37:37;102111.09;;;3.56;96.21
71805;BME280;59654;52.216;5.616;2023-04-08T01:38:14;102113.72;;;3.54;96.45
71805;BME280;59654;52.216;5.616;2023-04-08T01:38:48;102108.41;;;3.53;96.47
71805;BME280;59654;52.216;5.616;2023-04-08T01:39:20;102115.44;;;3.52;95.97
71805;BME280;59654;52.216;5.616;2023-04-08T01:39:54;102115.44;;;3.51;95.85
71805;BME280;59654;52.216;5.616;2023-04-08T01:40:26;102114.56;;;3.52;96.16
71805;BME280;59654;52.216;5.616;2023-04-08T01:40:57;102111.91;;;3.50;95.97
71805;BME280;59654;52.216;5.616;2023-04-08T01:41:30;102111.88;;;3.46;95.45
71805;BME280;59654;52.216;5.616;2023-04-08T01:42:04;102116.19;;;3.41;95.98
71805;BME280;59654;52.216;5.616;2023-04-08T01:42:36;102112.59;;;3.32;95.99
71805;BME280;59654;52.216;5.616;2023-04-08T01:43:09;102110.69;;;3.21;96.01
71805;BME280;59654;52.216;5.616;2023-04-08T01:43:43;102117.63;;;3.13;96.17
71805;BME280;59654;52.216;5.616;2023-04-08T01:44:16;102114.00;;;3.06;96.38
71805;BME280;59654;52.216;5.616;2023-04-08T01:44:50;102117.47;;;3.02;96.55
71805;BME280;59654;52.216;5.616;2023-04-08T01:45:22;102114.81;;;2.99;96.47
71805;BME280;59654;52.216;5.616;2023-04-08T01:45:55;102123.56;;;2.96;96.60
71805;BME280;59654;52.216;5.616;2023-04-08T01:46:28;102117.41;;;2.96;97.00
71805;BME280;59654;52.216;5.616;2023-04-08T01:47:01;102126.19;;;2.96;96.84
71805;BME280;59654;52.216;5.616;2023-04-08T01:47:34;102115.63;;;2.95;97.19
71805;BME280;59654;52.216;5.616;2023-04-08T01:48:07;102123.50;;;2.93;97.54
71805;BME280;59654;52.216;5.616;2023-04-08T01:48:43;102116.44;;;2.91;97.29
71805;BME280;59654;52.216;5.616;2023-04-08T01:49:16;102118.25;;;2.93;97.44
71805;BME280;59654;52.216;5.616;2023-04-08T01:49:49;102117.38;;;2.94;96.90
71805;BME280;59654;52.216;5.616;2023-04-08T01:50:21;102119.09;;;2.92;96.79
71805;BME280;59654;52.216;5.616;2023-04-08T01:50:54;102119.13;;;2.94;97.19
71805;BME280;59654;52.216;5.616;2023-04-08T01:51:28;102121.75;;;2.92;96.55
71805;BME280;59654;52.216;5.616;2023-04-08T01:52:03;102119.09;;;2.92;97.16
71805;BME280;59654;52.216;5.616;2023-04-08T01:52:38;102116.41;;;2.89;97.31
71805;BME280;59654;52.216;5.616;2023-04-08T01:53:10;102117.28;;;2.88;96.99
71805;BME280;59654;52.216;5.616;2023-04-08T01:53:42;102116.38;;;2.88;97.15
71805;BME280;59654;52.216;5.616;2023-04-08T01:54:13;102120.81;;;2.89;97.19
71805;BME280;59654;52.216;5.616;2023-04-08T01:54:46;102119.91;;;2.88;97.32
71805;BME280;59654;52.216;5.616;2023-04-08T01:55:17;102121.59;;;2.86;97.55
71805;BME280;59654;52.216;5.616;2023-04-08T01:55:54;102119.00;;;2.88;97.05
71805;BME280;59654;52.216;5.616;2023-04-08T01:56:32;102121.69;;;2.89;97.67
71805;BME280;59654;52.216;5.616;2023-04-08T01:57:11;102124.41;;;2.94;97.26
71805;BME280;59654;52.216;5.616;2023-04-08T01:57:49;102129.72;;;2.97;97.60
71805;BME280;59654;52.216;5.616;2023-04-08T01:58:24;102120.97;;;3.00;97.46
71805;BME280;59654;52.216;5.616;2023-04-08T01:59:00;102123.63;;;3.03;97.21
71805;BME280;59654;52.216;5.616;2023-04-08T01:59:39;102121.97;;;3.09;97.07
71805;BME280;59654;52.216;5.616;2023-04-08T02:00:13;102122.00;;;3.11;96.90
71805;BME280;59654;52.216;5.616;2023-04-08T02:00:57;102121.09;;;3.10;96.40
71805;BME280;59654;52.216;5.616;2023-04-08T02:01:31;102124.69;;;3.15;96.55
71805;BME280;59654;52.216;5.616;2023-04-08T02:02:07;102127.38;;;3.21;96.67
71805;BME280;59654;52.216;5.616;2023-04-08T02:02:41;102122.19;;;3.26;96.89
71805;BME280;59654;52.216;5.616;2023-04-08T02:03:17;102120.44;;;3.26;96.33
71805;BME280;59654;52.216;5.616;2023-04-08T02:03:52;102123.94;;;3.27;96.59
71805;BME280;59654;52.216;5.616;2023-04-08T02:04:27;102125.69;;;3.25;95.76
71805;BME280;59654;52.216;5.616;2023-04-08T02:04:58;102123.91;;;3.24;95.97
71805;BME280;59654;52.216;5.616;2023-04-08T02:05:29;102123.88;;;3.22;95.66
71805;BME280;59654;52.216;5.616;2023-04-08T02:06:00;102122.06;;;3.18;96.14
71805;BME280;59654;52.216;5.616;2023-04-08T02:06:32;102119.41;;;3.15;96.07
71805;BME280;59654;52.216;5.616;2023-04-08T02:07:03;102124.66;;;3.12;95.97
71805;BME280;59654;52.216;5.616;2023-04-08T02:07:35;102119.31;;;3.09;95.96
71805;BME280;59654;52.216;5.616;2023-04-08T02:08:06;102119.28;;;3.06;95.73
71805;BME280;59654;52.216;5.616;2023-04-08T02:08:37;102124.50;;;3.03;95.61
71805;BME280;59654;52.216;5.616;2023-04-08T02:09:08;102126.22;;;3.01;96.14
71805;BME280;59654;52.216;5.616;2023-04-08T02:09:39;102127.09;;;2.99;95.64
71805;BME280;59654;52.216;5.616;2023-04-08T02:10:11;102120.00;;;2.94;96.35
71805;BME280;59654;52.216;5.616;2023-04-08T02:10:42;102121.72;;;2.91;95.93
71805;BME280;59654;52.216;5.616;2023-04-08T02:11:13;102122.47;;;2.84;95.57
71805;BME280;59654;52.216;5.616;2023-04-08T02:11:43;102121.56;;;2.82;95.87
71805;BME280;59654;52.216;5.616;2023-04-08T02:12:16;102122.44;;;2.81;96.62
71805;BME280;59654;52.216;5.616;2023-04-08T02:12:48;102127.69;;;2.81;96.91
71805;BME280;59654;52.216;5.616;2023-04-08T02:13:19;102126.75;;;2.77;96.48
71805;BME280;59654;52.216;5.616;2023-04-08T02:13:50;102125.84;;;2.75;96.41
71805;BME280;59654;52.216;5.616;2023-04-08T02:14:22;102120.50;;;2.71;96.34
71805;BME280;59654;52.216;5.616;2023-04-08T02:14:54;102124.00;;;2.70;96.75
71805;BME280;59654;52.216;5.616;2023-04-08T02:15:32;102120.50;;;2.68;96.89
71805;BME280;59654;52.216;5.616;2023-04-08T02:16:32;102116.09;;;2.67;96.35
71805;BME280;59654;52.216;5.616;2023-04-08T02:17:24;102124.88;;;2.67;96.30
71805;BME280;59654;52.216;5.616;2023-04-08T02:18:10;102119.56;;;2.66;97.08
71805;BME280;59654;52.216;5.616;2023-04-08T02:19:03;102117.84;;;2.68;96.99
71805;BME280;59654;52.216;5.616;2023-04-08T02:19:58;102120.50;;;2.68;96.80
71805;BME280;59654;52.216;5.616;2023-04-08T02:20:37;102118.75;;;2.71;96.68
71805;BME280;59654;52.216;5.616;2023-04-08T02:21:13;102122.28;;;2.72;96.75
71805;BME280;59654;52.216;5.616;2023-04-08T02:21:54;102118.78;;;2.73;96.53
71805;BME280;59654;52.216;5.616;2023-04-08T02:23:17;102122.34;;;2.75;96.72
71805;BME280;59654;52.216;5.616;2023-04-08T02:23:50;102120.59;;;2.75;96.80
71805;BME280;59654;52.216;5.616;2023-04-08T02:24:21;102118.84;;;2.76;96.64
71805;BME280;59654;52.216;5.616;2023-04-08T02:24:52;102119.75;;;2.78;96.41
71805;BME280;59654;52.216;5.616;2023-04-08T02:25:24;102121.53;;;2.79;96.94
71805;BME280;59654;52.216;5.616;2023-04-08T02:25:57;102119.78;;;2.79;96.71
71805;BME280;59654;52.216;5.616;2023-04-08T02:26:33;102125.03;;;2.79;96.27
71805;BME280;59654;52.216;5.616;2023-04-08T02:27:09;102121.53;;;2.80;96.43
71805;BME280;59654;52.216;5.616;2023-04-08T02:27:42;102120.66;;;2.80;95.80
71805;BME280;59654;52.216;5.616;2023-04-08T02:28:18;102127.72;;;2.82;95.75
71805;BME280;59654;52.216;5.616;2023-04-08T02:28:51;102126.00;;;2.84;95.52
71805;BME280;59654;52.216;5.616;2023-04-08T02:29:30;102129.53;;;2.88;95.92
71805;BME280;59654;52.216;5.616;2023-04-08T02:30:05;102129.59;;;2.89;95.85
71805;BME280;59654;52.216;5.616;2023-04-08T02:30:41;102126.00;;;2.87;95.90
71805;BME280;59654;52.216;5.616;2023-04-08T02:31:16;102133.09;;;2.88;95.99
71805;BME280;59654;52.216;5.616;2023-04-08T02:31:50;102120.75;;;2.87;95.46
71805;BME280;59654;52.216;5.616;2023-04-08T02:32:24;102126.91;;;2.88;95.34
71805;BME280;59654;52.216;5.616;2023-04-08T02:32:57;102125.13;;;2.87;95.85
71805;BME280;59654;52.216;5.616;2023-04-08T02:33:29;102131.28;;;2.87;96.04
71805;BME280;59654;52.216;5.616;2023-04-08T02:34:01;102126.00;;;2.86;96.30
71805;BME280;59654;52.216;5.616;2023-04-08T02:34:34;102125.97;;;2.83;95.91
71805;BME280;59654;52.216;5.616;2023-04-08T02:35:06;102123.25;;;2.78;94.92
71805;BME280;59654;52.216;5.616;2023-04-08T02:35:39;102128.47;;;2.75;95.32
71805;BME280;59654;52.216;5.616;2023-04-08T02:36:13;102128.41;;;2.71;95.73
71805;BME280;59654;52.216;5.616;2023-04-08T02:36:45;102130.13;;;2.67;95.15
71805;BME280;59654;52.216;5.616;2023-04-08T02:37:17;102125.66;;;2.61;94.79
71805;BME280;59654;52.216;5.616;2023-04-08T02:37:48;102129.94;;;2.55;95.41
71805;BME280;59654;52.216;5.616;2023-04-08T02:38:19;102128.13;;;2.51;94.91
71805;BME280;59654;52.216;5.616;2023-04-08T02:38:50;102129.78;;;2.46;95.64
71805;BME280;59654;52.216;5.616;2023-04-08T02:39:29;102133.16;;;2.36;95.62
71805;BME280;59654;52.216;5.616;2023-04-08T02:40:01;102132.16;;;2.29;95.31
71805;BME280;59654;52.216;5.616;2023-04-08T02:40:33;102132.09;;;2.26;95.93
71805;BME280;59654;52.216;5.616;2023-04-08T02:41:07;102136.41;;;2.21;96.34
71805;BME280;59654;52.216;5.616;2023-04-08T02:41:38;102132.88;;;2.19;95.93
71805;BME280;59654;52.216;5.616;2023-04-08T02:42:08;102136.28;;;2.13;96.20
71805;BME280;59654;52.216;5.616;2023-04-08T02:42:39;102137.94;;;2.08;95.86
71805;BME280;59654;52.216;5.616;2023-04-08T02:43:10;102129.06;;;2.02;96.35
71805;BME280;59654;52.216;5.616;2023-04-08T02:43:41;102129.88;;;1.98;96.97
71805;BME280;59654;52.216;5.616;2023-04-08T02:44:12;102134.22;;;1.96;96.52
71805;BME280;59654;52.216;5.616;2023-04-08T02:44:44;102135.84;;;1.89;96.51
71805;BME280;59654;52.216;5.616;2023-04-08T02:45:15;102138.47;;;1.89;97.54
71805;BME280;59654;52.216;5.616;2023-04-08T02:45:46;102133.16;;;1.84;96.86
71805;BME280;59654;52.216;5.616;2023-04-08T02:46:18;102125.25;;;1.84;97.21
71805;BME280;59654;52.216;5.616;2023-04-08T02:46:49;102134.84;;;1.82;96.81
71805;BME280;59654;52.216;5.616;2023-04-08T02:47:20;102134.84;;;1.82;97.67
71805;BME280;59654;52.216;5.616;2023-04-08T02:47:51;102134.84;;;1.82;97.25
71805;BME280;59654;52.216;5.616;2023-04-08T02:48:22;102131.31;;;1.80;96.70
71805;BME280;59654;52.216;5.616;2023-04-08T02:48:53;102135.66;;;1.78;96.66
71805;BME280;59654;52.216;5.616;2023-04-08T02:49:23;102139.09;;;1.76;97.03
71805;BME280;59654;52.216;5.616;2023-04-08T02:49:54;102139.00;;;1.70;96.96
71805;BME280;59654;52.216;5.616;2023-04-08T02:50:26;102138.06;;;1.66;96.71
71805;BME280;59654;52.216;5.616;2023-04-08T02:50:56;102138.88;;;1.64;97.07
71805;BME280;59654;52.216;5.616;2023-04-08T02:51:27;102142.34;;;1.63;97.30
71805;BME280;59654;52.216;5.616;2023-04-08T02:51:58;102137.06;;;1.61;97.55
71805;BME280;59654;52.216;5.616;2023-04-08T02:52:29;102136.13;;;1.57;97.36
71805;BME280;59654;52.216;5.616;2023-04-08T02:53:00;102134.28;;;1.52;97.02
71805;BME280;59654;52.216;5.616;2023-04-08T02:53:30;102134.28;;;1.52;96.93
71805;BME280;59654;52.216;5.616;2023-04-08T02:54:01;102140.38;;;1.51;97.51
71805;BME280;59654;52.216;5.616;2023-04-08T02:54:32;102134.22;;;1.49;97.44
71805;BME280;59654;52.216;5.616;2023-04-08T02:55:03;102134.25;;;1.50;97.73
71805;BME280;59654;52.216;5.616;2023-04-08T02:55:36;102136.03;;;1.51;97.72
71805;BME280;59654;52.216;5.616;2023-04-08T02:56:10;102134.28;;;1.52;97.14
71805;BME280;59654;52.216;5.616;2023-04-08T02:56:41;102141.25;;;1.50;97.45
71805;BME280;59654;52.216;5.616;2023-04-08T02:57:12;102139.53;;;1.52;97.66
71805;BME280;59654;52.216;5.616;2023-04-08T02:57:42;102146.53;;;1.51;97.75
71805;BME280;59654;52.216;5.616;2023-04-08T02:58:13;102141.25;;;1.50;97.85
71805;BME280;59654;52.216;5.616;2023-04-08T02:58:44;102146.41;;;1.45;96.92
71805;BME280;59654;52.216;5.616;2023-04-08T02:59:15;102144.59;;;1.43;97.47
71805;BME280;59654;52.216;5.616;2023-04-08T02:59:46;102145.38;;;1.39;97.41
71805;BME280;59654;52.216;5.616;2023-04-08T03:00:17;102149.78;;;1.38;97.16